createdAt,value
2022-10-07T00:05:34.879Z,10.77
2022-10-07T00:13:10.163Z,11.75
2022-10-07T00:20:45.289Z,11.68
2022-10-07T00:28:19.171Z,10.85
2022-10-07T00:35:54.398Z,10.50
2022-10-07T00:43:31.276Z,9.75
2022-10-07T00:51:09.514Z,8.43
2022-10-07T00:58:45.815Z,7.20
2022-10-07T01:06:21.030Z,8.00
2022-10-07T01:14:04.367Z,7.75
2022-10-07T01:21:47.239Z,7.20
2022-10-07T01:29:26.646Z,6.07
2022-10-07T01:37:02.174Z,6.85
2022-10-07T01:44:37.580Z,5.60
2022-10-07T01:52:40.915Z,5.60
2022-10-07T02:00:17.805Z,6.10
2022-10-07T02:08:05.658Z,5.93
2022-10-07T02:15:45.995Z,7.38
2022-10-07T02:23:23.569Z,5.70
2022-10-07T02:31:03.804Z,6.70
2022-10-07T02:38:39.816Z,5.88
2022-10-07T02:46:22.658Z,4.97
2022-10-07T02:53:58.077Z,4.75
2022-10-07T03:01:38.564Z,5.07
2022-10-07T03:09:12.999Z,5.50
2022-10-07T03:16:48.091Z,5.22
2022-10-07T03:24:21.852Z,5.43
2022-10-07T03:31:56.990Z,5.00
2022-10-07T03:39:31.124Z,5.20
2022-10-07T03:47:10.670Z,6.37
2022-10-07T03:54:44.909Z,4.80
2022-10-07T04:02:20.416Z,4.65
2022-10-07T04:09:54.130Z,4.90
2022-10-07T04:17:29.406Z,4.55
2022-10-07T04:25:20.693Z,4.53
2022-10-07T04:32:55.970Z,4.30
2022-10-07T04:40:31.012Z,5.10
2022-10-07T04:48:06.697Z,5.45
2022-10-07T04:55:42.387Z,4.85
2022-10-07T05:03:19.511Z,4.68
2022-10-07T05:10:56.198Z,4.28
2022-10-07T05:18:33.326Z,4.55
2022-10-07T05:26:09.278Z,4.90
2022-10-07T05:33:46.134Z,6.35
2022-10-07T05:41:21.787Z,4.90
2022-10-07T05:48:57.154Z,4.97
2022-10-07T05:56:30.984Z,4.47
2022-10-07T06:04:08.090Z,5.03
2022-10-07T06:11:59.321Z,3.88
2022-10-07T06:19:34.598Z,5.07
2022-10-07T06:27:08.417Z,5.00
2022-10-07T06:34:45.136Z,5.55
2022-10-07T06:42:18.858Z,5.38
2022-10-07T06:49:54.022Z,4.93
2022-10-07T06:57:44.926Z,5.40
2022-10-07T07:05:20.667Z,6.32
2022-10-07T07:12:54.901Z,5.88
2022-10-07T07:20:35.111Z,7.00
2022-10-07T07:28:09.093Z,6.45
2022-10-07T07:35:44.950Z,6.77
2022-10-07T07:43:18.612Z,5.55
2022-10-07T07:50:54.308Z,5.82
2022-10-07T07:58:28.492Z,5.75
2022-10-07T08:06:04.460Z,5.67
2022-10-07T08:13:39.693Z,5.07
2022-10-07T08:21:17.555Z,4.97
2022-10-07T08:28:51.243Z,5.13
2022-10-07T08:36:28.382Z,3.85
2022-10-07T08:44:16.904Z,3.47
2022-10-07T08:51:59.458Z,4.13
2022-10-07T08:59:35.526Z,3.00
2022-10-07T09:07:14.533Z,3.22
2022-10-07T09:14:51.671Z,2.97
2022-10-07T09:22:32.883Z,2.67
2022-10-07T09:30:08.404Z,2.63
2022-10-07T09:37:57.985Z,3.10
2022-10-07T09:45:33.683Z,2.13
2022-10-07T09:53:19.966Z,2.45
2022-10-07T10:00:55.782Z,2.10
2022-10-07T10:08:33.949Z,2.47
2022-10-07T10:16:34.183Z,2.25
2022-10-07T10:24:15.175Z,2.25
2022-10-07T10:32:13.233Z,2.42
2022-10-07T10:40:02.332Z,1.83
2022-10-07T10:47:50.819Z,2.97
2022-10-07T10:55:48.906Z,1.50
2022-10-07T11:03:35.215Z,2.13
2022-10-07T11:11:15.947Z,2.72
2022-10-07T11:18:55.583Z,1.50
2022-10-07T11:26:37.693Z,1.20
2022-10-07T11:34:19.955Z,1.60
2022-10-07T11:42:02.487Z,1.65
2022-10-07T11:49:50.047Z,1.67
2022-10-07T11:57:27.372Z,1.20
2022-10-07T12:05:02.329Z,1.50
2022-10-07T12:12:50.043Z,1.83
2022-10-07T12:20:46.832Z,1.55
2022-10-07T12:28:27.909Z,2.13
2022-10-07T12:36:25.592Z,1.90
2022-10-07T12:44:13.987Z,2.08
2022-10-07T12:51:47.939Z,1.95
2022-10-07T12:59:49.672Z,2.22
2022-10-07T13:08:00.736Z,1.70
2022-10-07T13:15:42.743Z,1.98
2022-10-07T13:23:23.185Z,1.52
2022-10-07T13:31:15.584Z,1.73
2022-10-07T13:38:50.826Z,1.80
2022-10-07T13:54:04.671Z,1.70
2022-10-07T14:01:40.778Z,1.35
2022-10-07T14:09:19.652Z,1.75
2022-10-07T14:16:59.321Z,1.75
2022-10-07T14:24:33.316Z,1.30
2022-10-07T14:32:32.093Z,1.23
2022-10-07T14:40:18.089Z,1.33
2022-10-07T14:47:53.215Z,1.23
2022-10-07T15:03:04.400Z,1.88
2022-10-07T15:10:41.088Z,1.67
2022-10-07T15:18:16.234Z,2.08
2022-10-07T15:33:25.018Z,1.50
2022-10-07T15:41:00.627Z,1.42
2022-10-07T15:48:36.135Z,1.52
2022-10-07T15:56:10.650Z,1.65
2022-10-07T16:03:48.043Z,1.70
2022-10-07T16:11:21.939Z,1.50
2022-10-07T16:19:00.030Z,1.80
2022-10-07T16:26:35.825Z,2.50
2022-10-07T16:34:12.311Z,2.08
2022-10-07T16:41:46.839Z,2.88
2022-10-07T16:49:21.805Z,2.07
2022-10-07T16:56:57.627Z,1.98
2022-10-07T17:04:32.621Z,2.17
2022-10-07T17:12:07.616Z,2.22
2022-10-07T17:19:42.675Z,2.08
2022-10-07T17:34:51.907Z,1.88
2022-10-07T17:45:04.548Z,2.38
2022-10-07T17:52:38.244Z,2.42
2022-10-07T18:00:14.133Z,2.50
2022-10-07T18:07:48.785Z,2.58
2022-10-07T18:15:24.129Z,3.92
2022-10-07T18:22:58.890Z,6.07
2022-10-07T18:30:34.149Z,6.03
2022-10-07T18:38:07.955Z,7.00
2022-10-07T18:45:43.271Z,8.38
2022-10-07T18:53:17.383Z,8.77
2022-10-07T19:00:52.554Z,9.50
2022-10-07T19:08:26.618Z,9.75
2022-10-07T19:16:04.655Z,9.07
2022-10-07T19:23:38.454Z,10.90
2022-10-07T19:31:15.575Z,10.10
2022-10-07T19:38:52.528Z,8.85
2022-10-07T19:46:30.227Z,10.23
2022-10-07T19:54:10.155Z,9.80
2022-10-07T20:01:47.485Z,9.73
2022-10-07T20:09:22.508Z,9.52
2022-10-07T20:16:58.094Z,8.25
2022-10-07T20:24:32.021Z,8.38
2022-10-07T20:32:07.301Z,10.32
2022-10-07T20:39:58.524Z,9.25
2022-10-07T20:47:35.443Z,9.00
2022-10-07T20:55:11.589Z,9.32
2022-10-07T21:02:47.099Z,9.55
2022-10-07T21:10:21.001Z,8.32
2022-10-07T21:17:56.087Z,8.48
2022-10-07T21:25:30.340Z,10.73
2022-10-07T21:33:05.670Z,8.97
2022-10-07T21:40:39.488Z,8.40
2022-10-07T21:48:14.747Z,8.05
2022-10-07T21:55:49.422Z,8.75
2022-10-07T22:03:24.719Z,9.48
2022-10-07T22:11:01.078Z,9.05
2022-10-07T22:18:37.419Z,9.65
2022-10-07T22:26:13.674Z,9.18
2022-10-07T22:33:53.727Z,9.45
2022-10-07T22:41:27.967Z,9.18
2022-10-07T22:49:03.111Z,8.40
2022-10-07T22:56:36.962Z,8.40
2022-10-07T23:04:12.091Z,9.45
2022-10-07T23:11:45.887Z,8.38
2022-10-07T23:19:21.092Z,8.07
2022-10-07T23:26:55.008Z,8.45
2022-10-07T23:34:30.247Z,7.72
2022-10-07T23:42:04.130Z,8.50
2022-10-07T23:49:39.253Z,7.40
2022-10-07T23:57:12.963Z,7.28
